Chrisanthi — SX7108 — position and weather

sailwx.info

Track history (hours):
 
Tides and Currents Weather Stations Pressure Air Temp Water Temp Dewpoint Dewpoint Depression Visibility Wind Speed Wind Dir Waves Ship Positions

Chrisanthi

Last reported at 2016-Feb-12 11:33 UTC. Time now 2016-Feb-12 11:57 UTC.
Position N 37°13' E 025°11'.

Length 56 m; draft 3.9 m.

Type: Ship (hazmat cat A). MMSI: 237009100.

Date/timePositionNaut miles runAvg speedWind from/ knotsBaromVisibWave heightAir tempDewpointWater temp
2016-Feb-12 11:33N 37°13' E 025°11'1010.3
2016-Feb-12 10:33N 37°07' E 025°22'0 0.4
2016-Feb-12 09:33N 37°06' E 025°22'0 0.0
2016-Feb-12 08:28N 37°06' E 025°22'1 0.5
2016-Feb-12 07:23N 37°06' E 025°22'1 0.6
2016-Feb-12 06:30N 37°06' E 025°22'2 2.1
2016-Feb-12 05:33N 37°08' E 025°20'10 7.5
2016-Feb-12 04:14N 37°05' E 025°08'4 0.3
2016-Feb-11 16:27N 37°08' E 025°10'7 7.7
2016-Feb-11 15:33N 37°08' E 025°19'16 8.0
2016-Feb-11 13:32N 36°55' E 025°31'5 1.6
2016-Feb-11 10:07N 36°52' E 025°25'  
2016-Feb-07 07:05N 36°59' E 025°57'4 8.4
2016-Feb-07 06:33N 36°58' E 025°51'9 8.5
2016-Feb-07 05:33N 36°56' E 025°41'4 1.7
2016-Feb-07 03:21N 36°56' E 025°36'0 0.0
2016-Feb-07 02:32N 36°56' E 025°36'0 0.0
2016-Feb-07 00:19N 36°56' E 025°36'0 0.0
2016-Feb-06 23:29N 36°56' E 025°36'0 0.0
2016-Feb-06 22:06N 36°56' E 025°36'0 0.0
2016-Feb-06 21:21N 36°56' E 025°36'0 0.0
2016-Feb-06 17:30N 36°56' E 025°36'0 0.0
2016-Feb-06 16:32N 36°56' E 025°36'0 0.0
2016-Feb-06 15:30N 36°56' E 025°36'0 0.0
2016-Feb-06 14:33N 36°56' E 025°36'0 0.0
2016-Feb-06 12:24N 36°56' E 025°36'0 0.0
2016-Feb-06 11:17N 36°56' E 025°36'0 0.0
2016-Feb-06 10:31N 36°56' E 025°36'0 0.0
2016-Feb-06 09:32N 36°56' E 025°36'0 0.0
2016-Feb-06 08:19N 36°56' E 025°36'0 0.0
2016-Feb-06 07:25N 36°56' E 025°36'0 0.0
2016-Feb-06 06:29N 36°56' E 025°36'0 0.0
2016-Feb-06 04:24N 36°56' E 025°36'0 0.0
2016-Feb-06 03:29N 36°56' E 025°36'0 0.0
2016-Feb-06 02:26N 36°56' E 025°36'0 0.0
2016-Feb-06 01:30N 36°56' E 025°36'0 0.0
2016-Feb-06 00:21N 36°56' E 025°36'0 0.0
2016-Feb-05 23:31N 36°56' E 025°36'3 3.5
2016-Feb-05 22:32N 36°58' E 025°40'12 6.0
2016-Feb-05 20:33N 37°09' E 025°43'10 9.3
2016-Feb-05 19:31N 37°18' E 025°38'10 9.9
2016-Feb-05 18:33N 37°26' E 025°31'9 8.6
2016-Feb-05 17:33N 37°24' E 025°21'9 9.2
2016-Feb-05 16:33N 37°22' E 025°09'10 9.9
2016-Feb-05 15:33N 37°22' E 024°57'3 2.6
2016-Feb-05 14:33N 37°22' E 024°53'56 8.6
2016-Feb-05 08:05N 37°39' E 023°46'5 9.7
2016-Feb-05 07:33N 37°42' E 023°41'9 9.4
2016-Feb-05 06:33N 37°49' E 023°33'1010.2
2016-Feb-05 05:33N 37°51' E 023°20'1010.3
2016-Feb-05 04:33N 37°54' E 023°08'2 0.9
2016-Feb-05 02:11N 37°55' E 023°05'0 0.0
2016-Feb-05 01:33N 37°55' E 023°05'0 0.0
2016-Feb-05 00:33N 37°55' E 023°05'0 0.0
2016-Feb-04 23:30N 37°55' E 023°05'0 0.0
2016-Feb-04 19:25N 37°55' E 023°05'0 0.0
2016-Feb-04 18:27N 37°55' E 023°05'0 0.0
2016-Feb-04 17:23N 37°55' E 023°05'1 0.1
2016-Feb-04 07:33N 37°55' E 023°07'1110.6
2016-Feb-04 06:33N 37°52' E 023°20'1010.5
2016-Feb-04 05:33N 37°50' E 023°33'9 9.3
2016-Feb-04 04:33N 37°45' E 023°43'63 8.8
2016-Feb-03 21:27N 37°12' E 024°50'910.1
2016-Feb-03 20:33N 37°11' E 025°01'1010.0
2016-Feb-03 19:34N 37°11' E 025°14'8 8.2
2016-Feb-03 18:33N 37°06' E 025°22'0 0.0
2016-Feb-03 17:33N 37°06' E 025°22'0 0.5
2016-Feb-03 16:33N 37°06' E 025°22'2 1.7
2016-Feb-03 15:33N 37°08' E 025°21'10 8.5
2016-Feb-03 14:24N 37°07' E 025°08'2 0.2
2016-Feb-03 04:24N 37°05' E 025°09'32 2.4
2016-Feb-02 15:29N 36°35' E 025°19'  
Track history (hours):
 
Tides and Currents Weather Stations Pressure Air Temp Water Temp Dewpoint Dewpoint Depression Visibility Wind Speed Wind Dir Waves Ship Positions

Chrisanthi

Last reported at 2016-Feb-12 11:33 UTC. Time now 2016-Feb-12 11:57 UTC.
Position N 37°13' E 025°11'.

Length 56 m; draft 3.9 m.

Type: Ship (hazmat cat A). MMSI: 237009100.

Date/timePositionNaut miles runAvg speedWind from/ knotsBaromVisibWave heightAir tempDewpointWater temp
2016-Feb-12 11:33N 37°13' E 025°11'1010.3
2016-Feb-12 10:33N 37°07' E 025°22'0 0.4
2016-Feb-12 09:33N 37°06' E 025°22'0 0.0
2016-Feb-12 08:28N 37°06' E 025°22'1 0.5
2016-Feb-12 07:23N 37°06' E 025°22'1 0.6
2016-Feb-12 06:30N 37°06' E 025°22'2 2.1
2016-Feb-12 05:33N 37°08' E 025°20'10 7.5
2016-Feb-12 04:14N 37°05' E 025°08'4 0.3
2016-Feb-11 16:27N 37°08' E 025°10'7 7.7
2016-Feb-11 15:33N 37°08' E 025°19'16 8.0
2016-Feb-11 13:32N 36°55' E 025°31'5 1.6
2016-Feb-11 10:07N 36°52' E 025°25'  
2016-Feb-07 07:05N 36°59' E 025°57'4 8.4
2016-Feb-07 06:33N 36°58' E 025°51'9 8.5
2016-Feb-07 05:33N 36°56' E 025°41'4 1.7
2016-Feb-07 03:21N 36°56' E 025°36'0 0.0
2016-Feb-07 02:32N 36°56' E 025°36'0 0.0
2016-Feb-07 00:19N 36°56' E 025°36'0 0.0
2016-Feb-06 23:29N 36°56' E 025°36'0 0.0
2016-Feb-06 22:06N 36°56' E 025°36'0 0.0
2016-Feb-06 21:21N 36°56' E 025°36'0 0.0
2016-Feb-06 17:30N 36°56' E 025°36'0 0.0
2016-Feb-06 16:32N 36°56' E 025°36'0 0.0
2016-Feb-06 15:30N 36°56' E 025°36'0 0.0
2016-Feb-06 14:33N 36°56' E 025°36'0 0.0
2016-Feb-06 12:24N 36°56' E 025°36'0 0.0
2016-Feb-06 11:17N 36°56' E 025°36'0 0.0
2016-Feb-06 10:31N 36°56' E 025°36'0 0.0
2016-Feb-06 09:32N 36°56' E 025°36'0 0.0
2016-Feb-06 08:19N 36°56' E 025°36'0 0.0
2016-Feb-06 07:25N 36°56' E 025°36'0 0.0
2016-Feb-06 06:29N 36°56' E 025°36'0 0.0
2016-Feb-06 04:24N 36°56' E 025°36'0 0.0
2016-Feb-06 03:29N 36°56' E 025°36'0 0.0
2016-Feb-06 02:26N 36°56' E 025°36'0 0.0
2016-Feb-06 01:30N 36°56' E 025°36'0 0.0
2016-Feb-06 00:21N 36°56' E 025°36'0 0.0
2016-Feb-05 23:31N 36°56' E 025°36'3 3.5
2016-Feb-05 22:32N 36°58' E 025°40'12 6.0
2016-Feb-05 20:33N 37°09' E 025°43'10 9.3
2016-Feb-05 19:31N 37°18' E 025°38'10 9.9
2016-Feb-05 18:33N 37°26' E 025°31'9 8.6
2016-Feb-05 17:33N 37°24' E 025°21'9 9.2
2016-Feb-05 16:33N 37°22' E 025°09'10 9.9
2016-Feb-05 15:33N 37°22' E 024°57'3 2.6
2016-Feb-05 14:33N 37°22' E 024°53'56 8.6
2016-Feb-05 08:05N 37°39' E 023°46'5 9.7
2016-Feb-05 07:33N 37°42' E 023°41'9 9.4
2016-Feb-05 06:33N 37°49' E 023°33'1010.2
2016-Feb-05 05:33N 37°51' E 023°20'1010.3
2016-Feb-05 04:33N 37°54' E 023°08'2 0.9
2016-Feb-05 02:11N 37°55' E 023°05'0 0.0
2016-Feb-05 01:33N 37°55' E 023°05'0 0.0
2016-Feb-05 00:33N 37°55' E 023°05'0 0.0
2016-Feb-04 23:30N 37°55' E 023°05'0 0.0
2016-Feb-04 19:25N 37°55' E 023°05'0 0.0
2016-Feb-04 18:27N 37°55' E 023°05'0 0.0
2016-Feb-04 17:23N 37°55' E 023°05'1 0.1
2016-Feb-04 07:33N 37°55' E 023°07'1110.6
2016-Feb-04 06:33N 37°52' E 023°20'1010.5
2016-Feb-04 05:33N 37°50' E 023°33'9 9.3
2016-Feb-04 04:33N 37°45' E 023°43'63 8.8
2016-Feb-03 21:27N 37°12' E 024°50'910.1
2016-Feb-03 20:33N 37°11' E 025°01'1010.0
2016-Feb-03 19:34N 37°11' E 025°14'8 8.2
2016-Feb-03 18:33N 37°06' E 025°22'0 0.0
2016-Feb-03 17:33N 37°06' E 025°22'0 0.5
2016-Feb-03 16:33N 37°06' E 025°22'2 1.7
2016-Feb-03 15:33N 37°08' E 025°21'10 8.5
2016-Feb-03 14:24N 37°07' E 025°08'2 0.2
2016-Feb-03 04:24N 37°05' E 025°09'32 2.4
2016-Feb-02 15:29N 36°35' E 025°19'  

Dump ship's entire track history